Time;durP1;ratioP1;P1;durP2;ratioP2;P2;SDS_P1;SDS_P2;PMS_P1;PMS_P2;Temp;Humidity;BMP_temperature;BMP_pressure;BME280_temperature;BME280_humidity;BME280_pressure;Samples;Min_cycle;Max_cycle;Signal;HPM_P1;HPM_P2
2022/02/05 00:03:11;;;;;;;1999.90;999.90;;;;;;;5.66;76.35;100383.09;15659354;28;20386;-61
2022/02/05 00:42:10;;;;;;;1999.90;999.90;;;;;;;5.40;75.46;100463.00;15615503;28;20045;-63
2022/02/05 00:49:46;;;;;;;1999.90;999.90;;;;;;;5.59;75.15;100474.00;15598431;28;20053;-62
2022/02/05 00:57:44;;;;;;;1999.90;999.90;;;;;;;5.72;75.84;100485.09;15616427;28;20502;-62
2022/02/05 01:05:18;;;;;;;1999.90;999.90;;;;;;;5.74;76.03;100496.69;15606854;28;20069;-61
2022/02/05 01:12:54;;;;;;;1999.90;999.90;;;;;;;5.92;74.08;100510.78;15625118;28;20124;-61
2022/02/05 01:28:21;;;;;;;1999.90;999.90;;;;;;;5.78;72.94;100530.94;15661741;28;20045;-67
2022/02/05 01:36:16;;;;;;;1999.90;999.90;;;;;;;6.00;72.25;100535.00;15690316;28;20098;-61
2022/02/05 01:52:01;;;;;;;1999.90;999.90;;;;;;;5.61;72.63;100543.72;15684004;28;20041;-61
2022/02/05 01:59:49;;;;;;;1999.90;999.90;;;;;;;6.00;71.82;100548.84;15666183;28;20128;-63
2022/02/05 02:15:30;;;;;;;1999.90;999.90;;;;;;;5.91;71.37;100584.72;15674312;28;20110;-64
2022/02/05 02:23:21;;;;;;;1999.90;999.90;;;;;;;6.27;70.12;100589.59;15682179;28;20081;-63
2022/02/05 02:31:00;;;;;;;1999.90;999.90;;;;;;;5.97;70.54;100596.56;15663859;28;20136;-60
2022/02/05 02:38:41;;;;;;;1999.90;999.90;;;;;;;5.87;70.21;100603.06;15680932;28;20055;-62
2022/02/05 02:46:16;;;;;;;1999.90;999.90;;;;;;;5.81;69.89;100618.09;15663167;28;20041;-62
2022/02/05 03:01:42;;;;;;;1999.90;999.90;;;;;;;6.14;69.26;100612.56;15680198;28;20059;-63
2022/02/05 03:09:20;;;;;;;1999.90;999.90;;;;;;;5.89;69.55;100647.88;15661468;28;20053;-64
2022/02/05 03:17:00;;;;;;;1999.90;999.90;;;;;;;6.20;68.51;100642.66;15678460;28;20045;-63
2022/02/05 03:24:34;;;;;;;1999.90;999.90;;;;;;;5.93;71.53;100662.78;15678665;28;20494;-64
2022/02/05 03:32:06;;;;;;;;;;;;;;;5.98;72.82;100648.03;15679532;28;20060;-61
2022/02/05 03:39:47;;;;;;;1999.90;999.90;;;;;;;6.07;73.50;100640.69;15677733;28;19922;-63
2022/02/05 03:47:23;;;;;;;1999.90;999.90;;;;;;;6.13;73.10;100653.28;15678337;28;20554;-64
2022/02/05 03:54:58;;;;;;;1999.90;999.90;;;;;;;6.20;72.39;100666.75;15659954;28;20041;-64
2022/02/05 04:02:30;;;;;;;1999.90;999.90;;;;;;;6.26;71.92;100665.56;15677536;28;20049;-62
2022/02/05 04:10:08;;;;;;;1999.90;999.90;;;;;;;6.38;70.98;100684.47;15678907;28;20048;-60
2022/02/05 04:17:43;;;;;;;1999.90;999.90;;;;;;;6.46;69.43;100678.19;15677877;28;20303;-64
2022/02/05 04:25:19;;;;;;;1999.90;999.90;;;;;;;6.44;69.50;100692.34;15677015;28;20041;-63
2022/02/05 04:32:58;;;;;;;1999.90;999.90;;;;;;;5.96;70.66;100700.16;15676355;28;20060;-62
2022/02/05 04:40:36;;;;;;;1999.90;999.90;;;;;;;6.47;69.65;100711.16;15686432;28;20053;-65
2022/02/05 04:48:48;;;;;;;1999.90;999.90;;;;;;;6.34;70.11;100711.94;15639597;28;20042;-62
2022/02/05 04:56:34;;;;;;;1999.90;999.90;;;;;;;6.40;69.24;100721.00;15685408;28;20486;-61
2022/02/05 05:04:20;;;;;;;1999.90;999.90;;;;;;;6.34;69.29;100732.16;15590567;28;20045;-62
2022/02/05 05:12:18;;;;;;;1999.90;999.90;;;;;;;6.35;69.21;100728.25;15680196;28;20406;-62
2022/02/05 05:19:50;;;;;;;1999.90;999.90;;;;;;;6.16;69.74;100732.25;15686584;28;20069;-63
2022/02/05 05:27:24;;;;;;;1999.90;999.90;;;;;;;6.52;68.05;100735.19;15667670;28;20047;-62
2022/02/05 05:34:56;;;;;;;;;;;;;;;6.27;69.09;100745.63;15685292;28;20045;-62
2022/02/05 05:42:37;;;;;;;1999.90;999.90;;;;;;;6.49;68.15;100757.97;15684856;28;19921;-62
2022/02/05 05:50:35;;;;;;;1999.90;999.90;;;;;;;6.18;69.13;100766.00;15666224;28;20409;-62
2022/02/05 05:58:04;;;;;;;;;;;;;;;6.50;68.25;100782.63;15666387;28;20062;-62
2022/02/05 06:05:37;;;;;;;1999.90;999.90;;;;;;;6.04;69.40;100782.53;15683257;28;20340;-62
2022/02/05 06:13:13;;;;;;;1999.90;999.90;;;;;;;6.00;70.17;100790.66;15665862;28;20136;-62
2022/02/05 06:20:50;;;;;;;1999.90;999.90;;;;;;;6.05;69.52;100792.53;15632531;28;20079;-62
2022/02/05 06:28:26;;;;;;;1999.90;999.90;;;;;;;5.90;70.41;100801.88;15693408;28;20041;-62
2022/02/05 06:35:59;;;;;;;1999.90;999.90;;;;;;;5.97;70.98;100820.91;15681788;28;20037;-61
2022/02/05 06:43:33;;;;;;;1999.90;999.90;;;;;;;5.90;71.10;100812.97;15664875;28;20485;-60
2022/02/05 06:51:05;;;;;;;1999.90;999.90;;;;;;;6.19;69.95;100817.53;15645277;28;20041;-60
2022/02/05 06:58:38;;;;;;;1999.90;999.90;;;;;;;6.14;70.84;100845.28;15661355;28;20120;-62
2022/02/05 07:06:10;;;;;;;1999.90;999.90;;;;;;;5.90;71.33;100824.03;15661580;28;20041;-61
2022/02/05 07:13:44;;;;;;;1999.90;999.90;;;;;;;5.94;70.88;100830.66;15645299;28;20076;-61
2022/02/05 07:21:20;;;;;;;1999.90;999.90;;;;;;;5.53;71.29;100860.78;15660838;28;20033;-61
2022/02/05 07:36:43;;;;;;;1999.90;999.90;;;;;;;5.78;69.72;100898.41;15616733;28;20103;-62
2022/02/05 07:44:17;;;;;;;1999.90;999.90;;;;;;;6.00;70.21;100920.84;15598441;28;20053;-62
2022/02/05 07:51:50;;;;;;;1999.90;999.90;;;;;;;6.24;69.06;100918.00;15598304;28;20498;-61
2022/02/05 07:59:23;;;;;;;1999.90;999.90;;;;;;;6.66;67.85;100941.22;15597687;28;20045;-61
2022/02/05 08:06:57;;;;;;;1999.90;999.90;;;;;;;6.87;66.40;100944.47;15581706;28;20048;-60
2022/02/05 08:14:34;;;;;;;1999.90;999.90;;;;;;;6.96;66.18;100942.66;15626166;28;20046;-61
2022/02/05 08:22:06;;;;;;;1999.90;999.90;;;;;;;6.45;68.50;100956.50;15610774;28;20048;-60
2022/02/05 08:29:46;;;;;;;1999.90;999.90;;;;;;;6.50;68.64;100970.31;15632339;28;20440;-59
2022/02/05 08:37:18;;;;;;;1999.90;999.90;;;;;;;6.23;70.24;100982.88;15688946;28;20045;-61
2022/02/05 08:44:51;;;;;;;1999.90;999.90;;;;;;;6.38;69.03;100992.94;15654848;28;20112;-61
2022/02/05 08:52:24;;;;;;;1999.90;999.90;;;;;;;5.91;70.69;101004.88;15688498;28;20057;-61
2022/02/05 09:00:02;;;;;;;1999.90;999.90;;;;;;;6.55;69.04;101020.13;15650132;28;20041;-60
2022/02/05 09:07:35;;;;;;;1999.90;999.90;;;;;;;6.57;67.86;101023.47;15679733;28;20567;-61
2022/02/05 09:15:09;;;;;;;1999.90;999.90;;;;;;;7.10;66.16;101043.47;15686650;28;20135;-60
2022/02/05 09:22:41;;;;;;;1999.90;999.90;;;;;;;6.86;65.41;101048.25;15667203;28;20049;-61
2022/02/05 09:30:16;;;;;;;1999.90;999.90;;;;;;;6.69;66.13;101059.88;15685195;28;20064;-62
2022/02/05 09:37:48;;;;;;;1999.90;999.90;;;;;;;6.66;67.16;101063.22;15685073;28;20049;-62
2022/02/05 09:45:22;;;;;;;1999.90;999.90;;;;;;;6.53;67.53;101091.69;15666697;28;20047;-61
2022/02/05 09:53:01;;;;;;;1999.90;999.90;;;;;;;6.96;66.52;101095.28;15684273;28;20092;-62
2022/02/05 10:00:35;;;;;;;1999.90;999.90;;;;;;;8.38;62.85;101100.34;15683568;28;20048;-62
2022/02/05 10:08:09;;;;;;;1999.90;999.90;;;;;;;8.71;61.25;101103.81;15665190;28;20048;-62
2022/02/05 10:15:42;;;;;;;1999.90;999.90;;;;;;;9.48;59.13;101108.44;15682007;28;20049;-62
2022/02/05 10:23:14;;;;;;;1999.90;999.90;;;;;;;8.74;59.65;101124.63;15683081;28;20045;-62
2022/02/05 10:30:51;;;;;;;1999.90;999.90;;;;;;;8.04;61.14;101126.56;15681891;28;20041;-62
2022/02/05 10:46:20;;;;;;;1999.90;999.90;;;;;;;8.51;61.27;101140.41;15681373;28;20457;-62
2022/02/05 10:54:10;;;;;;;1999.90;999.90;;;;;;;7.99;62.15;101142.47;15662665;28;20101;-63
2022/02/05 11:09:34;;;;;;;1999.90;999.90;;;;;;;7.35;63.05;101133.81;15679715;28;20060;-63
2022/02/05 11:25:01;;;;;;;1999.90;999.90;;;;;;;7.71;63.20;101122.97;15653639;28;20133;-63
2022/02/05 11:32:50;;;;;;;1999.90;999.90;;;;;;;7.50;62.92;101114.16;15645624;28;20411;-62
2022/02/05 11:40:49;;;;;;;1999.90;999.90;;;;;;;9.75;58.08;101124.22;15678497;28;20060;-63
2022/02/05 11:48:56;;;;;;;1999.90;999.90;;;;;;;13.01;50.18;101118.19;15677735;28;20045;-63
2022/02/05 11:56:48;;;;;;;1999.90;999.90;;;;;;;10.75;52.12;101115.38;15660137;28;20497;-61
2022/02/05 12:04:30;;;;;;;1999.90;999.90;;;;;;;11.83;49.53;101115.25;15677153;28;20049;-63
2022/02/05 12:12:45;;;;;;;1999.90;999.90;;;;;;;11.71;48.13;101117.06;15677390;28;20537;-64
2022/02/05 12:20:23;;;;;;;1999.90;999.90;;;;;;;9.88;51.30;101128.06;15658747;28;20037;-64
2022/02/05 12:27:55;;;;;;;1999.90;999.90;;;;;;;9.06;52.10;101135.59;15696230;28;20037;-64
2022/02/05 12:35:29;;;;;;;1999.90;999.90;;;;;;;9.01;52.69;101127.38;15683680;28;20037;-63
2022/02/05 12:43:01;;;;;;;;;;;;;;;9.04;52.56;101126.75;15677366;28;20041;-63
2022/02/05 12:50:38;;;;;;;1999.90;999.90;;;;;;;8.92;53.98;101137.59;15675884;28;19920;-63
2022/02/05 12:58:10;;;;;;;1999.90;999.90;;;;;;;8.42;54.58;101120.00;15680361;28;20045;-63
2022/02/05 13:05:43;;;;;;;1999.90;999.90;;;;;;;8.77;53.54;101126.81;15669732;28;20056;-63
2022/02/05 13:13:16;;;;;;;1999.90;999.90;;;;;;;8.99;52.44;101126.88;15668943;28;20044;-63
2022/02/05 13:28:43;;;;;;;1999.90;999.90;;;;;;;8.45;53.38;101141.66;15686022;28;20047;-63
2022/02/05 13:36:22;;;;;;;1999.90;999.90;;;;;;;8.68;53.38;101146.19;15686857;28;20041;-63
2022/02/05 13:43:57;;;;;;;1999.90;999.90;;;;;;;8.70;53.08;101148.66;15685441;28;20056;-63
2022/02/05 13:51:35;;;;;;;1999.90;999.90;;;;;;;8.93;52.69;101158.72;15685325;28;20037;-61
2022/02/05 13:59:21;;;;;;;1999.90;999.90;;;;;;;8.70;53.87;101154.22;15684950;28;20071;-63
2022/02/05 14:06:56;;;;;;;1999.90;999.90;;;;;;;8.46;54.60;101162.78;15666471;28;20067;-63
2022/02/05 14:14:31;;;;;;;1999.90;999.90;;;;;;;8.60;53.70;101147.72;15665790;28;20043;-64
2022/02/05 14:22:18;;;;;;;1999.90;999.90;;;;;;;8.63;54.45;101163.78;15648154;28;20053;-63
2022/02/05 14:29:58;;;;;;;1999.90;999.90;;;;;;;8.25;53.95;101151.19;15681681;28;20090;-63
2022/02/05 14:45:12;;;;;;;1999.90;999.90;;;;;;;8.73;53.58;101156.38;15647437;28;20053;-63
2022/02/05 14:52:45;;;;;;;1999.90;999.90;;;;;;;8.59;53.50;101157.22;15681119;28;20125;-63
2022/02/05 15:00:18;;;;;;;1999.90;999.90;;;;;;;8.90;52.65;101160.19;15680777;28;20555;-63
2022/02/05 15:07:52;;;;;;;1999.90;999.90;;;;;;;8.59;53.57;101162.78;15662453;28;20140;-63
2022/02/05 15:15:26;;;;;;;1999.90;999.90;;;;;;;8.68;53.47;101149.78;15680960;28;20513;-63
2022/02/05 15:22:59;;;;;;;1999.90;999.90;;;;;;;8.28;53.55;101159.72;15646733;28;20127;-63
2022/02/05 15:30:31;;;;;;;1999.90;999.90;;;;;;;8.52;53.07;101153.19;15681779;28;20045;-63
2022/02/05 15:38:11;;;;;;;1999.90;999.90;;;;;;;8.41;52.68;101152.56;15662339;28;20070;-64
2022/02/05 15:45:43;;;;;;;1999.90;999.90;;;;;;;7.93;52.76;101147.31;15679351;28;20048;-63
2022/02/05 15:53:17;;;;;;;1999.90;999.90;;;;;;;7.94;53.57;101148.97;15678570;28;20049;-63
2022/02/05 16:00:49;;;;;;;1999.90;999.90;;;;;;;7.90;53.72;101155.41;15660655;28;20057;-63
2022/02/05 16:08:22;;;;;;;1999.90;999.90;;;;;;;7.87;53.57;101156.03;15659385;28;20056;-62
2022/02/05 16:15:55;;;;;;;1999.90;999.90;;;;;;;8.15;53.43;101151.38;15608840;28;20123;-60
2022/02/05 16:23:28;;;;;;;1999.90;999.90;;;;;;;7.96;53.82;101143.91;15637899;28;20132;-60
2022/02/05 16:31:00;;;;;;;1999.90;999.90;;;;;;;7.82;54.30;101146.66;15646516;28;20140;-62
2022/02/05 16:38:34;;;;;;;1999.90;999.90;;;;;;;7.64;55.09;101138.38;15689295;28;20136;-63
2022/02/05 16:46:08;;;;;;;1999.90;999.90;;;;;;;7.74;54.30;101133.47;15671317;28;20068;-58
2022/02/05 16:53:44;;;;;;;1999.90;999.90;;;;;;;7.88;54.54;101133.50;15669938;28;20128;-61
2022/02/05 17:01:16;;;;;;;1999.90;999.90;;;;;;;7.77;54.76;101123.69;15687050;28;20045;-61
2022/02/05 17:08:52;;;;;;;1999.90;999.90;;;;;;;7.94;53.99;101126.72;15686756;28;20041;-62
2022/02/05 17:16:24;;;;;;;1999.90;999.90;;;;;;;7.84;53.89;101123.31;15686363;28;20123;-60
2022/02/05 17:23:59;;;;;;;1999.90;999.90;;;;;;;7.92;54.22;101117.88;15685740;28;20083;-61
2022/02/05 17:31:31;;;;;;;1999.90;999.90;;;;;;;7.85;54.68;101119.41;15666982;28;20108;-60
2022/02/05 17:39:06;;;;;;;1999.90;999.90;;;;;;;7.60;54.65;101112.31;15684976;28;20485;-61
2022/02/05 17:46:41;;;;;;;1999.90;999.90;;;;;;;7.45;54.35;101111.44;15684848;28;20052;-61
2022/02/05 17:54:14;;;;;;;1999.90;999.90;;;;;;;7.90;53.61;101110.97;15652804;28;20040;-62
2022/02/05 18:01:48;;;;;;;;;;;;;;;8.09;52.62;101089.47;15685639;28;20128;-60
2022/02/05 18:09:42;;;;;;;;;;;;;;;8.04;53.42;101098.75;15674782;22;19921;-63
2022/02/05 18:17:15;;;;;;;1999.90;999.90;;;;;;;7.92;53.32;101087.31;15678533;28;19927;-63
2022/02/05 18:24:48;;;;;;;1999.90;999.90;;;;;;;7.44;54.92;101078.44;15685049;28;20041;-62
2022/02/05 18:32:20;;;;;;;1999.90;999.90;;;;;;;7.50;55.15;101074.44;15676210;28;20136;-63
2022/02/05 18:39:54;;;;;;;1999.90;999.90;;;;;;;7.69;55.13;101061.31;15658879;28;20500;-63
2022/02/05 18:47:26;;;;;;;1999.90;999.90;;;;;;;7.40;56.69;101056.00;15676161;28;20123;-62
2022/02/05 18:54:59;;;;;;;1999.90;999.90;;;;;;;7.46;56.68;101042.84;15656884;28;20484;-62
2022/02/05 19:02:43;;;;;;;1999.90;999.90;;;;;;;7.08;57.76;101036.53;15657440;28;20064;-62
2022/02/05 19:18:12;;;;;;;1999.90;999.90;;;;;;;7.04;58.17;101021.63;15627257;28;20049;-63
2022/02/05 19:25:46;;;;;;;1999.90;999.90;;;;;;;7.35;57.74;101025.56;15645823;28;20498;-63
2022/02/05 19:33:18;;;;;;;1999.90;999.90;;;;;;;7.15;57.83;101026.72;15622494;28;20118;-63
2022/02/05 19:40:55;;;;;;;1999.90;999.90;;;;;;;7.48;57.36;101018.38;15654514;28;20052;-64
2022/02/05 19:48:30;;;;;;;1999.90;999.90;;;;;;;7.44;57.35;101007.06;15656058;28;20049;-62
2022/02/05 19:56:04;;;;;;;1999.90;999.90;;;;;;;7.37;57.94;101000.25;15593705;28;20053;-61
2022/02/05 20:03:36;;;;;;;1999.90;999.90;;;;;;;7.34;57.85;100993.38;15590876;28;20077;-61
2022/02/05 20:11:10;;;;;;;1999.90;999.90;;;;;;;7.34;57.78;100990.59;15576515;28;20133;-62
2022/02/05 20:18:44;;;;;;;;;;;;;;;7.48;56.90;100990.59;15609931;28;20148;-60
2022/02/05 20:26:19;;;;;;;1999.90;999.90;;;;;;;7.14;57.60;100965.97;15602193;28;19920;-62
2022/02/05 20:33:51;;;;;;;1999.90;999.90;;;;;;;7.45;56.92;100955.13;15653138;28;20098;-62
2022/02/05 20:41:25;;;;;;;1999.90;999.90;;;;;;;7.44;56.81;100954.31;15652187;28;20037;-60
2022/02/05 20:48:57;;;;;;;1999.90;999.90;;;;;;;7.37;57.15;100933.63;15675159;28;20114;-62
2022/02/05 20:56:30;;;;;;;1999.90;999.90;;;;;;;7.20;57.95;100920.34;15685388;28;20053;-62
2022/02/05 21:04:04;;;;;;;1999.90;999.90;;;;;;;7.37;57.02;100917.78;15653944;28;20049;-62
2022/02/05 21:11:38;;;;;;;1999.90;999.90;;;;;;;7.11;58.03;100909.13;15620014;28;20041;-62
2022/02/05 21:19:10;;;;;;;1999.90;999.90;;;;;;;7.27;57.80;100887.44;15648634;28;20157;-61
2022/02/05 21:26:45;;;;;;;1999.90;999.90;;;;;;;7.29;57.80;100887.97;15619963;28;20061;-62
2022/02/05 21:34:44;;;;;;;1999.90;999.90;;;;;;;7.29;58.05;100876.03;15618897;28;20410;-61
2022/02/05 21:42:18;;;;;;;1999.90;999.90;;;;;;;7.13;58.16;100865.25;15677907;28;20496;-62
2022/02/05 21:49:57;;;;;;;1999.90;999.90;;;;;;;7.09;58.37;100843.97;15661204;28;20520;-62
2022/02/05 21:57:33;;;;;;;1999.90;999.90;;;;;;;7.12;58.04;100840.56;15660774;28;20145;-62
2022/02/05 22:05:06;;;;;;;1999.90;999.90;;;;;;;7.28;58.09;100827.19;15678190;28;20442;-61
2022/02/05 22:12:39;;;;;;;1999.90;999.90;;;;;;;7.41;57.43;100816.13;15647369;28;20531;-61
2022/02/05 22:20:12;;;;;;;1999.90;999.90;;;;;;;7.45;57.39;100788.53;15598348;28;20037;-62
2022/02/05 22:27:45;;;;;;;1999.90;999.90;;;;;;;7.18;58.16;100792.97;15615556;28;20092;-61
2022/02/05 22:35:17;;;;;;;1999.90;999.90;;;;;;;7.17;58.63;100788.56;15581351;28;20099;-62
2022/02/05 22:42:51;;;;;;;1999.90;999.90;;;;;;;7.09;59.55;100769.88;15595754;28;20047;-62
2022/02/05 22:50:23;;;;;;;;;;;;;;;7.21;59.67;100759.06;15595870;28;20034;-61
2022/02/05 22:57:56;;;;;;;1999.90;999.90;;;;;;;7.23;60.44;100751.25;15595233;28;19974;-60
2022/02/05 23:05:28;;;;;;;1999.90;999.90;;;;;;;7.18;60.87;100734.69;15612501;28;20112;-61
2022/02/05 23:13:17;;;;;;;1999.90;999.90;;;;;;;6.93;63.16;100732.44;15610781;28;20506;-62
2022/02/05 23:44:24;;;;;;;1999.90;999.90;;;;;;;6.39;66.20;100669.47;15654786;28;20064;-62
2022/02/05 23:51:56;;;;;;;1999.90;999.90;;;;;;;6.55;66.21;100652.22;15672947;28;20111;-60
2022/02/05 23:59:29;;;;;;;1999.90;999.90;;;;;;;6.43;66.70;100648.31;15654074;28;20072;-61
